sensor_id;sensor_type;location;lat;lon;timestamp;P1;durP1;ratioP1;P2;durP2;ratioP2
70560;SDS011;58109;53.570;10.084;2022-12-18T00:01:03;30.77;;;13.18;;
70560;SDS011;58109;53.570;10.084;2022-12-18T00:03:34;21.98;;;11.73;;
70560;SDS011;58109;53.570;10.084;2022-12-18T00:06:00;28.75;;;12.10;;
70560;SDS011;58109;53.570;10.084;2022-12-18T00:08:26;28.10;;;12.63;;
70560;SDS011;58109;53.570;10.084;2022-12-18T00:10:52;26.40;;;12.00;;
70560;SDS011;58109;53.570;10.084;2022-12-18T00:13:17;24.30;;;12.70;;
70560;SDS011;58109;53.570;10.084;2022-12-18T00:15:45;21.42;;;11.25;;
70560;SDS011;58109;53.570;10.084;2022-12-18T00:18:11;24.77;;;12.40;;
70560;SDS011;58109;53.570;10.084;2022-12-18T00:20:41;23.75;;;12.07;;
70560;SDS011;58109;53.570;10.084;2022-12-18T00:23:07;21.80;;;10.40;;
70560;SDS011;58109;53.570;10.084;2022-12-18T00:25:33;26.27;;;11.73;;
70560;SDS011;58109;53.570;10.084;2022-12-18T00:28:03;25.50;;;12.68;;
70560;SDS011;58109;53.570;10.084;2022-12-18T00:30:28;23.25;;;12.15;;
70560;SDS011;58109;53.570;10.084;2022-12-18T00:32:54;23.07;;;11.60;;
70560;SDS011;58109;53.570;10.084;2022-12-18T00:35:20;30.00;;;12.10;;
70560;SDS011;58109;53.570;10.084;2022-12-18T00:37:45;24.53;;;12.23;;
70560;SDS011;58109;53.570;10.084;2022-12-18T00:40:11;24.47;;;11.73;;
70560;SDS011;58109;53.570;10.084;2022-12-18T00:42:37;20.77;;;11.30;;
70560;SDS011;58109;53.570;10.084;2022-12-18T00:45:24;25.20;;;12.13;;
70560;SDS011;58109;53.570;10.084;2022-12-18T00:47:53;33.33;;;12.40;;
70560;SDS011;58109;53.570;10.084;2022-12-18T00:50:22;28.90;;;12.38;;
70560;SDS011;58109;53.570;10.084;2022-12-18T00:52:51;27.85;;;12.93;;
70560;SDS011;58109;53.570;10.084;2022-12-18T00:55:17;24.98;;;11.95;;
70560;SDS011;58109;53.570;10.084;2022-12-18T00:57:42;29.80;;;12.20;;
70560;SDS011;58109;53.570;10.084;2022-12-18T01:00:10;18.60;;;10.53;;
70560;SDS011;58109;53.570;10.084;2022-12-18T01:02:38;24.63;;;11.50;;
70560;SDS011;58109;53.570;10.084;2022-12-18T01:05:04;20.13;;;10.20;;
70560;SDS011;58109;53.570;10.084;2022-12-18T01:07:29;20.53;;;10.73;;
70560;SDS011;58109;53.570;10.084;2022-12-18T01:09:55;22.00;;;10.93;;
70560;SDS011;58109;53.570;10.084;2022-12-18T01:12:20;23.87;;;12.00;;
70560;SDS011;58109;53.570;10.084;2022-12-18T01:14:46;23.97;;;11.23;;
70560;SDS011;58109;53.570;10.084;2022-12-18T01:17:13;22.60;;;11.00;;
70560;SDS011;58109;53.570;10.084;2022-12-18T01:19:39;22.20;;;11.03;;
70560;SDS011;58109;53.570;10.084;2022-12-18T01:22:05;20.47;;;9.50;;
70560;SDS011;58109;53.570;10.084;2022-12-18T01:24:30;27.27;;;12.17;;
70560;SDS011;58109;53.570;10.084;2022-12-18T01:26:55;25.37;;;12.47;;
70560;SDS011;58109;53.570;10.084;2022-12-18T01:29:26;23.73;;;10.88;;
70560;SDS011;58109;53.570;10.084;2022-12-18T01:31:54;28.60;;;10.97;;
70560;SDS011;58109;53.570;10.084;2022-12-18T01:34:20;19.25;;;10.10;;
70560;SDS011;58109;53.570;10.084;2022-12-18T01:36:45;20.97;;;11.10;;
70560;SDS011;58109;53.570;10.084;2022-12-18T01:39:11;21.97;;;10.47;;
70560;SDS011;58109;53.570;10.084;2022-12-18T01:41:38;20.17;;;10.90;;
70560;SDS011;58109;53.570;10.084;2022-12-18T01:50:13;18.75;;;10.48;;
70560;SDS011;58109;53.570;10.084;2022-12-18T01:52:39;18.00;;;10.68;;
70560;SDS011;58109;53.570;10.084;2022-12-18T01:55:12;18.20;;;10.13;;
70560;SDS011;58109;53.570;10.084;2022-12-18T01:57:41;23.00;;;10.43;;
70560;SDS011;58109;53.570;10.084;2022-12-18T02:00:09;21.53;;;10.63;;
70560;SDS011;58109;53.570;10.084;2022-12-18T02:02:36;19.20;;;9.50;;
70560;SDS011;58109;53.570;10.084;2022-12-18T02:05:02;24.73;;;10.07;;
70560;SDS011;58109;53.570;10.084;2022-12-18T02:07:37;17.40;;;8.82;;
70560;SDS011;58109;53.570;10.084;2022-12-18T02:10:13;18.33;;;9.70;;
70560;SDS011;58109;53.570;10.084;2022-12-18T02:18:18;17.38;;;9.52;;
70560;SDS011;58109;53.570;10.084;2022-12-18T02:20:56;17.80;;;9.18;;
70560;SDS011;58109;53.570;10.084;2022-12-18T02:28:33;21.25;;;9.68;;
70560;SDS011;58109;53.570;10.084;2022-12-18T02:31:02;20.08;;;8.95;;
70560;SDS011;58109;53.570;10.084;2022-12-18T02:33:29;20.15;;;9.40;;
70560;SDS011;58109;53.570;10.084;2022-12-18T02:35:55;22.20;;;11.10;;
70560;SDS011;58109;53.570;10.084;2022-12-18T02:38:22;23.08;;;9.27;;
70560;SDS011;58109;53.570;10.084;2022-12-18T02:40:48;21.83;;;8.98;;
70560;SDS011;58109;53.570;10.084;2022-12-18T02:43:19;21.67;;;10.25;;
70560;SDS011;58109;53.570;10.084;2022-12-18T02:45:52;21.05;;;9.30;;
70560;SDS011;58109;53.570;10.084;2022-12-18T02:48:21;24.10;;;10.40;;
70560;SDS011;58109;53.570;10.084;2022-12-18T02:50:59;15.90;;;8.80;;
70560;SDS011;58109;53.570;10.084;2022-12-18T02:53:33;24.63;;;9.93;;
70560;SDS011;58109;53.570;10.084;2022-12-18T03:04:11;16.75;;;9.38;;
70560;SDS011;58109;53.570;10.084;2022-12-18T03:06:43;17.88;;;8.90;;
70560;SDS011;58109;53.570;10.084;2022-12-18T03:09:14;17.33;;;8.43;;
70560;SDS011;58109;53.570;10.084;2022-12-18T03:11:47;20.45;;;9.43;;
70560;SDS011;58109;53.570;10.084;2022-12-18T03:14:38;17.80;;;7.93;;
70560;SDS011;58109;53.570;10.084;2022-12-18T03:17:05;14.75;;;8.20;;
70560;SDS011;58109;53.570;10.084;2022-12-18T03:19:38;13.68;;;8.48;;
70560;SDS011;58109;53.570;10.084;2022-12-18T03:22:04;18.30;;;8.85;;
70560;SDS011;58109;53.570;10.084;2022-12-18T03:24:31;18.58;;;8.48;;
70560;SDS011;58109;53.570;10.084;2022-12-18T03:27:12;16.23;;;7.83;;
70560;SDS011;58109;53.570;10.084;2022-12-18T03:29:54;18.00;;;8.45;;
70560;SDS011;58109;53.570;10.084;2022-12-18T03:32:32;22.65;;;8.20;;
70560;SDS011;58109;53.570;10.084;2022-12-18T03:35:01;16.27;;;8.85;;
70560;SDS011;58109;53.570;10.084;2022-12-18T03:37:28;21.92;;;9.07;;
70560;SDS011;58109;53.570;10.084;2022-12-18T03:39:54;14.90;;;7.60;;
70560;SDS011;58109;53.570;10.084;2022-12-18T03:50:22;20.33;;;8.82;;
70560;SDS011;58109;53.570;10.084;2022-12-18T03:52:52;15.88;;;8.52;;
70560;SDS011;58109;53.570;10.084;2022-12-18T03:55:22;16.17;;;7.80;;
70560;SDS011;58109;53.570;10.084;2022-12-18T03:57:48;12.20;;;7.10;;
70560;SDS011;58109;53.570;10.084;2022-12-18T04:00:17;17.38;;;8.70;;
70560;SDS011;58109;53.570;10.084;2022-12-18T04:02:44;14.40;;;8.18;;
70560;SDS011;58109;53.570;10.084;2022-12-18T04:05:12;14.85;;;7.82;;
70560;SDS011;58109;53.570;10.084;2022-12-18T04:07:40;15.07;;;8.20;;
70560;SDS011;58109;53.570;10.084;2022-12-18T04:10:07;18.63;;;8.38;;
70560;SDS011;58109;53.570;10.084;2022-12-18T04:12:33;18.13;;;7.72;;
70560;SDS011;58109;53.570;10.084;2022-12-18T04:15:01;13.10;;;7.80;;
70560;SDS011;58109;53.570;10.084;2022-12-18T04:17:26;15.00;;;8.55;;
70560;SDS011;58109;53.570;10.084;2022-12-18T04:19:51;17.80;;;9.20;;
70560;SDS011;58109;53.570;10.084;2022-12-18T04:22:17;15.00;;;8.10;;
70560;SDS011;58109;53.570;10.084;2022-12-18T04:24:42;20.17;;;8.73;;
70560;SDS011;58109;53.570;10.084;2022-12-18T04:27:08;17.40;;;8.27;;
70560;SDS011;58109;53.570;10.084;2022-12-18T04:29:33;13.80;;;7.77;;
70560;SDS011;58109;53.570;10.084;2022-12-18T04:31:58;16.30;;;8.00;;
70560;SDS011;58109;53.570;10.084;2022-12-18T04:34:24;13.87;;;7.67;;
70560;SDS011;58109;53.570;10.084;2022-12-18T04:36:49;15.90;;;7.67;;
70560;SDS011;58109;53.570;10.084;2022-12-18T04:39:18;14.40;;;8.40;;
70560;SDS011;58109;53.570;10.084;2022-12-18T04:41:43;14.70;;;7.07;;
70560;SDS011;58109;53.570;10.084;2022-12-18T04:44:08;23.10;;;8.17;;
70560;SDS011;58109;53.570;10.084;2022-12-18T04:46:35;19.27;;;8.98;;
70560;SDS011;58109;53.570;10.084;2022-12-18T04:49:00;14.90;;;8.03;;
70560;SDS011;58109;53.570;10.084;2022-12-18T04:51:28;18.48;;;9.52;;
70560;SDS011;58109;53.570;10.084;2022-12-18T04:53:56;15.20;;;8.20;;
70560;SDS011;58109;53.570;10.084;2022-12-18T04:56:21;16.92;;;9.27;;
70560;SDS011;58109;53.570;10.084;2022-12-18T04:58:47;15.67;;;8.37;;
70560;SDS011;58109;53.570;10.084;2022-12-18T05:01:13;16.97;;;8.97;;
70560;SDS011;58109;53.570;10.084;2022-12-18T05:03:40;24.38;;;9.15;;
70560;SDS011;58109;53.570;10.084;2022-12-18T05:06:05;20.60;;;10.50;;
70560;SDS011;58109;53.570;10.084;2022-12-18T05:08:31;24.52;;;8.40;;
70560;SDS011;58109;53.570;10.084;2022-12-18T05:13:29;13.63;;;9.10;;
70560;SDS011;58109;53.570;10.084;2022-12-18T05:15:55;15.43;;;8.10;;
70560;SDS011;58109;53.570;10.084;2022-12-18T05:18:21;19.07;;;9.70;;
70560;SDS011;58109;53.570;10.084;2022-12-18T05:20:48;17.75;;;8.77;;
70560;SDS011;58109;53.570;10.084;2022-12-18T05:23:17;15.82;;;8.93;;
70560;SDS011;58109;53.570;10.084;2022-12-18T05:25:46;16.02;;;8.48;;
70560;SDS011;58109;53.570;10.084;2022-12-18T05:28:26;15.07;;;8.50;;
70560;SDS011;58109;53.570;10.084;2022-12-18T05:30:55;16.17;;;8.32;;
70560;SDS011;58109;53.570;10.084;2022-12-18T05:33:22;18.45;;;8.63;;
70560;SDS011;58109;53.570;10.084;2022-12-18T05:35:51;17.30;;;8.75;;
70560;SDS011;58109;53.570;10.084;2022-12-18T05:38:18;22.65;;;9.23;;
70560;SDS011;58109;53.570;10.084;2022-12-18T05:40:44;17.15;;;8.90;;
70560;SDS011;58109;53.570;10.084;2022-12-18T05:43:09;17.00;;;8.23;;
70560;SDS011;58109;53.570;10.084;2022-12-18T05:45:38;16.42;;;8.75;;
70560;SDS011;58109;53.570;10.084;2022-12-18T05:48:04;15.23;;;7.55;;
70560;SDS011;58109;53.570;10.084;2022-12-18T05:50:30;19.47;;;9.07;;
70560;SDS011;58109;53.570;10.084;2022-12-18T05:52:58;18.10;;;8.60;;
70560;SDS011;58109;53.570;10.084;2022-12-18T05:55:23;18.63;;;9.20;;
70560;SDS011;58109;53.570;10.084;2022-12-18T05:57:49;19.23;;;9.17;;
70560;SDS011;58109;53.570;10.084;2022-12-18T06:00:14;16.87;;;8.70;;
70560;SDS011;58109;53.570;10.084;2022-12-18T06:02:40;18.85;;;9.00;;
70560;SDS011;58109;53.570;10.084;2022-12-18T06:05:06;21.03;;;9.70;;
70560;SDS011;58109;53.570;10.084;2022-12-18T06:07:31;23.20;;;9.13;;
70560;SDS011;58109;53.570;10.084;2022-12-18T06:09:57;22.77;;;9.30;;
70560;SDS011;58109;53.570;10.084;2022-12-18T06:12:22;19.03;;;10.00;;
70560;SDS011;58109;53.570;10.084;2022-12-18T06:14:48;24.90;;;10.10;;
70560;SDS011;58109;53.570;10.084;2022-12-18T06:17:15;19.58;;;9.55;;
70560;SDS011;58109;53.570;10.084;2022-12-18T06:19:41;16.53;;;9.20;;
70560;SDS011;58109;53.570;10.084;2022-12-18T06:22:06;18.23;;;9.53;;
70560;SDS011;58109;53.570;10.084;2022-12-18T06:24:31;16.70;;;9.83;;
70560;SDS011;58109;53.570;10.084;2022-12-18T06:26:58;13.15;;;8.20;;
70560;SDS011;58109;53.570;10.084;2022-12-18T06:29:23;20.03;;;10.10;;
70560;SDS011;58109;53.570;10.084;2022-12-18T06:31:48;19.10;;;9.90;;
70560;SDS011;58109;53.570;10.084;2022-12-18T06:34:14;15.70;;;9.37;;
70560;SDS011;58109;53.570;10.084;2022-12-18T06:36:39;15.63;;;9.47;;
70560;SDS011;58109;53.570;10.084;2022-12-18T06:39:05;20.93;;;10.20;;
70560;SDS011;58109;53.570;10.084;2022-12-18T06:41:35;18.85;;;8.65;;
70560;SDS011;58109;53.570;10.084;2022-12-18T06:44:00;26.77;;;10.50;;
70560;SDS011;58109;53.570;10.084;2022-12-18T06:46:26;22.20;;;10.37;;
70560;SDS011;58109;53.570;10.084;2022-12-18T06:48:51;16.90;;;8.90;;
70560;SDS011;58109;53.570;10.084;2022-12-18T06:51:23;18.67;;;8.63;;
70560;SDS011;58109;53.570;10.084;2022-12-18T06:53:48;20.73;;;10.32;;
70560;SDS011;58109;53.570;10.084;2022-12-18T06:56:14;22.03;;;10.60;;
70560;SDS011;58109;53.570;10.084;2022-12-18T06:58:40;18.60;;;9.97;;
70560;SDS011;58109;53.570;10.084;2022-12-18T07:01:07;22.60;;;9.73;;
70560;SDS011;58109;53.570;10.084;2022-12-18T07:03:34;18.63;;;9.00;;
70560;SDS011;58109;53.570;10.084;2022-12-18T07:06:00;22.03;;;9.90;;
70560;SDS011;58109;53.570;10.084;2022-12-18T07:08:25;18.57;;;10.27;;
70560;SDS011;58109;53.570;10.084;2022-12-18T07:10:51;31.30;;;9.50;;
70560;SDS011;58109;53.570;10.084;2022-12-18T07:13:16;20.17;;;9.63;;
70560;SDS011;58109;53.570;10.084;2022-12-18T07:15:42;24.17;;;10.63;;
70560;SDS011;58109;53.570;10.084;2022-12-18T07:18:08;19.85;;;9.25;;
70560;SDS011;58109;53.570;10.084;2022-12-18T07:20:33;24.67;;;12.37;;
70560;SDS011;58109;53.570;10.084;2022-12-18T07:23:01;26.60;;;11.30;;
70560;SDS011;58109;53.570;10.084;2022-12-18T07:25:27;23.48;;;11.07;;
70560;SDS011;58109;53.570;10.084;2022-12-18T07:27:52;24.23;;;10.30;;
70560;SDS011;58109;53.570;10.084;2022-12-18T07:30:18;21.10;;;10.27;;
70560;SDS011;58109;53.570;10.084;2022-12-18T07:32:48;22.13;;;11.02;;
70560;SDS011;58109;53.570;10.084;2022-12-18T07:35:16;19.80;;;10.48;;
70560;SDS011;58109;53.570;10.084;2022-12-18T07:37:41;25.47;;;11.30;;
70560;SDS011;58109;53.570;10.084;2022-12-18T07:40:07;25.23;;;10.97;;
70560;SDS011;58109;53.570;10.084;2022-12-18T07:42:40;22.73;;;10.63;;
70560;SDS011;58109;53.570;10.084;2022-12-18T07:45:05;27.00;;;11.13;;
70560;SDS011;58109;53.570;10.084;2022-12-18T07:47:35;20.05;;;9.63;;
70560;SDS011;58109;53.570;10.084;2022-12-18T07:50:04;22.10;;;10.65;;
70560;SDS011;58109;53.570;10.084;2022-12-18T07:52:31;21.05;;;11.20;;
70560;SDS011;58109;53.570;10.084;2022-12-18T07:55:05;23.55;;;11.32;;
70560;SDS011;58109;53.570;10.084;2022-12-18T07:57:33;23.40;;;11.00;;
70560;SDS011;58109;53.570;10.084;2022-12-18T08:00:01;16.67;;;9.75;;
70560;SDS011;58109;53.570;10.084;2022-12-18T08:02:26;18.90;;;10.10;;
70560;SDS011;58109;53.570;10.084;2022-12-18T08:04:51;26.60;;;11.17;;
70560;SDS011;58109;53.570;10.084;2022-12-18T08:07:19;20.90;;;11.60;;
70560;SDS011;58109;53.570;10.084;2022-12-18T08:09:45;24.90;;;12.07;;
70560;SDS011;58109;53.570;10.084;2022-12-18T08:12:10;24.77;;;11.90;;
70560;SDS011;58109;53.570;10.084;2022-12-18T08:14:38;21.70;;;10.95;;
70560;SDS011;58109;53.570;10.084;2022-12-18T08:17:03;21.03;;;10.30;;
70560;SDS011;58109;53.570;10.084;2022-12-18T08:19:28;24.53;;;12.10;;
70560;SDS011;58109;53.570;10.084;2022-12-18T08:21:54;26.87;;;12.13;;
70560;SDS011;58109;53.570;10.084;2022-12-18T08:24:19;24.83;;;10.20;;
70560;SDS011;58109;53.570;10.084;2022-12-18T08:26:45;23.43;;;12.23;;
70560;SDS011;58109;53.570;10.084;2022-12-18T08:29:10;31.10;;;15.40;;
70560;SDS011;58109;53.570;10.084;2022-12-18T08:31:36;26.90;;;14.80;;
70560;SDS011;58109;53.570;10.084;2022-12-18T08:34:01;28.10;;;15.80;;
70560;SDS011;58109;53.570;10.084;2022-12-18T08:36:26;22.80;;;13.07;;
70560;SDS011;58109;53.570;10.084;2022-12-18T08:38:52;27.37;;;13.07;;
70560;SDS011;58109;53.570;10.084;2022-12-18T08:41:20;25.33;;;13.13;;
70560;SDS011;58109;53.570;10.084;2022-12-18T08:43:48;23.88;;;10.23;;
70560;SDS011;58109;53.570;10.084;2022-12-18T08:46:34;24.42;;;11.00;;
70560;SDS011;58109;53.570;10.084;2022-12-18T08:49:00;23.52;;;12.20;;
70560;SDS011;58109;53.570;10.084;2022-12-18T08:51:26;25.07;;;11.30;;
70560;SDS011;58109;53.570;10.084;2022-12-18T08:53:54;25.17;;;13.17;;
70560;SDS011;58109;53.570;10.084;2022-12-18T08:56:19;27.02;;;12.40;;
70560;SDS011;58109;53.570;10.084;2022-12-18T08:58:47;34.28;;;16.02;;
70560;SDS011;58109;53.570;10.084;2022-12-18T09:01:15;40.28;;;17.10;;
70560;SDS011;58109;53.570;10.084;2022-12-18T09:03:41;35.70;;;15.70;;
70560;SDS011;58109;53.570;10.084;2022-12-18T09:06:06;32.00;;;15.20;;
70560;SDS011;58109;53.570;10.084;2022-12-18T09:08:34;28.50;;;13.10;;
70560;SDS011;58109;53.570;10.084;2022-12-18T09:11:01;39.22;;;17.27;;
70560;SDS011;58109;53.570;10.084;2022-12-18T09:13:26;32.20;;;14.87;;
70560;SDS011;58109;53.570;10.084;2022-12-18T09:15:53;28.90;;;13.40;;
70560;SDS011;58109;53.570;10.084;2022-12-18T09:18:22;29.38;;;13.63;;
70560;SDS011;58109;53.570;10.084;2022-12-18T09:20:48;27.67;;;11.23;;
70560;SDS011;58109;53.570;10.084;2022-12-18T09:23:17;29.27;;;11.35;;
70560;SDS011;58109;53.570;10.084;2022-12-18T09:25:43;27.20;;;11.40;;
70560;SDS011;58109;53.570;10.084;2022-12-18T09:28:12;21.50;;;11.43;;
70560;SDS011;58109;53.570;10.084;2022-12-18T09:30:46;24.00;;;11.23;;
70560;SDS011;58109;53.570;10.084;2022-12-18T09:33:12;25.83;;;11.98;;
70560;SDS011;58109;53.570;10.084;2022-12-18T09:35:42;26.20;;;12.60;;
70560;SDS011;58109;53.570;10.084;2022-12-18T09:38:16;32.35;;;12.30;;
70560;SDS011;58109;53.570;10.084;2022-12-18T09:40:50;24.58;;;10.82;;
70560;SDS011;58109;53.570;10.084;2022-12-18T09:43:21;23.50;;;10.38;;
70560;SDS011;58109;53.570;10.084;2022-12-18T09:45:52;30.33;;;11.18;;
70560;SDS011;58109;53.570;10.084;2022-12-18T09:48:27;27.20;;;11.50;;
70560;SDS011;58109;53.570;10.084;2022-12-18T09:50:55;19.52;;;11.05;;
70560;SDS011;58109;53.570;10.084;2022-12-18T09:53:24;29.90;;;12.30;;
70560;SDS011;58109;53.570;10.084;2022-12-18T09:55:52;31.17;;;12.68;;
70560;SDS011;58109;53.570;10.084;2022-12-18T10:00:52;26.23;;;12.50;;
70560;SDS011;58109;53.570;10.084;2022-12-18T10:03:18;26.00;;;12.35;;
70560;SDS011;58109;53.570;10.084;2022-12-18T10:14:23;37.92;;;13.82;;
70560;SDS011;58109;53.570;10.084;2022-12-18T10:19:58;22.60;;;11.40;;
70560;SDS011;58109;53.570;10.084;2022-12-18T10:28:24;20.40;;;10.88;;
70560;SDS011;58109;53.570;10.084;2022-12-18T10:31:14;24.67;;;11.23;;
70560;SDS011;58109;53.570;10.084;2022-12-18T10:33:42;20.02;;;10.65;;
70560;SDS011;58109;53.570;10.084;2022-12-18T10:36:07;27.20;;;13.07;;
70560;SDS011;58109;53.570;10.084;2022-12-18T10:38:33;21.27;;;11.60;;
70560;SDS011;58109;53.570;10.084;2022-12-18T10:43:28;23.05;;;12.07;;
70560;SDS011;58109;53.570;10.084;2022-12-18T10:51:25;30.88;;;11.10;;
70560;SDS011;58109;53.570;10.084;2022-12-18T10:54:02;23.98;;;12.00;;
70560;SDS011;58109;53.570;10.084;2022-12-18T10:56:51;25.85;;;11.75;;
70560;SDS011;58109;53.570;10.084;2022-12-18T10:59:51;27.63;;;11.90;;
70560;SDS011;58109;53.570;10.084;2022-12-18T11:02:35;22.67;;;12.13;;
70560;SDS011;58109;53.570;10.084;2022-12-18T11:05:02;32.17;;;11.98;;
70560;SDS011;58109;53.570;10.084;2022-12-18T11:07:49;22.65;;;12.88;;
70560;SDS011;58109;53.570;10.084;2022-12-18T11:10:20;19.48;;;11.20;;
70560;SDS011;58109;53.570;10.084;2022-12-18T11:12:47;25.25;;;10.50;;
70560;SDS011;58109;53.570;10.084;2022-12-18T11:15:16;22.13;;;11.20;;
70560;SDS011;58109;53.570;10.084;2022-12-18T11:17:46;21.80;;;11.48;;
70560;SDS011;58109;53.570;10.084;2022-12-18T11:22:57;23.20;;;10.95;;
70560;SDS011;58109;53.570;10.084;2022-12-18T11:25:30;23.13;;;11.35;;
70560;SDS011;58109;53.570;10.084;2022-12-18T11:27:58;24.77;;;11.05;;
70560;SDS011;58109;53.570;10.084;2022-12-18T11:30:26;24.10;;;11.70;;
70560;SDS011;58109;53.570;10.084;2022-12-18T11:32:54;23.48;;;11.13;;
70560;SDS011;58109;53.570;10.084;2022-12-18T11:35:39;22.75;;;10.93;;
70560;SDS011;58109;53.570;10.084;2022-12-18T11:38:21;29.02;;;12.68;;
70560;SDS011;58109;53.570;10.084;2022-12-18T11:41:01;23.08;;;11.60;;
70560;SDS011;58109;53.570;10.084;2022-12-18T11:43:48;27.60;;;12.65;;
70560;SDS011;58109;53.570;10.084;2022-12-18T11:46:19;23.70;;;11.20;;
70560;SDS011;58109;53.570;10.084;2022-12-18T11:48:54;24.10;;;11.32;;
70560;SDS011;58109;53.570;10.084;2022-12-18T11:51:28;20.90;;;10.60;;
70560;SDS011;58109;53.570;10.084;2022-12-18T11:53:57;27.58;;;11.20;;
70560;SDS011;58109;53.570;10.084;2022-12-18T11:56:35;20.60;;;11.23;;
70560;SDS011;58109;53.570;10.084;2022-12-18T12:01:48;19.40;;;10.95;;
70560;SDS011;58109;53.570;10.084;2022-12-18T12:04:32;27.40;;;11.65;;
70560;SDS011;58109;53.570;10.084;2022-12-18T12:07:06;23.40;;;11.05;;
70560;SDS011;58109;53.570;10.084;2022-12-18T12:29:04;28.17;;;12.18;;
70560;SDS011;58109;53.570;10.084;2022-12-18T12:34:18;18.70;;;10.18;;
70560;SDS011;58109;53.570;10.084;2022-12-18T12:39:40;23.90;;;11.77;;
70560;SDS011;58109;53.570;10.084;2022-12-18T12:48:31;30.95;;;12.80;;
70560;SDS011;58109;53.570;10.084;2022-12-18T12:53:56;20.65;;;11.43;;
70560;SDS011;58109;53.570;10.084;2022-12-18T12:56:24;27.98;;;12.43;;
70560;SDS011;58109;53.570;10.084;2022-12-18T13:12:59;30.97;;;12.00;;
70560;SDS011;58109;53.570;10.084;2022-12-18T13:15:43;23.20;;;11.05;;
70560;SDS011;58109;53.570;10.084;2022-12-18T13:18:16;27.25;;;13.43;;
70560;SDS011;58109;53.570;10.084;2022-12-18T13:25:52;27.20;;;12.63;;
70560;SDS011;58109;53.570;10.084;2022-12-18T13:34:19;30.40;;;13.00;;
70560;SDS011;58109;53.570;10.084;2022-12-18T13:36:47;26.60;;;13.25;;
70560;SDS011;58109;53.570;10.084;2022-12-18T13:41:46;32.47;;;12.80;;
70560;SDS011;58109;53.570;10.084;2022-12-18T13:47:50;27.77;;;12.63;;
70560;SDS011;58109;53.570;10.084;2022-12-18T13:49:56;25.80;;;12.70;;
70560;SDS011;58109;53.570;10.084;2022-12-18T13:52:24;28.30;;;12.50;;
70560;SDS011;58109;53.570;10.084;2022-12-18T13:55:14;27.08;;;11.80;;
70560;SDS011;58109;53.570;10.084;2022-12-18T13:57:46;32.55;;;13.65;;
70560;SDS011;58109;53.570;10.084;2022-12-18T14:00:28;34.33;;;13.43;;
70560;SDS011;58109;53.570;10.084;2022-12-18T14:02:54;32.92;;;13.35;;
70560;SDS011;58109;53.570;10.084;2022-12-18T14:05:27;29.48;;;13.23;;
70560;SDS011;58109;53.570;10.084;2022-12-18T14:08:07;31.83;;;11.93;;
70560;SDS011;58109;53.570;10.084;2022-12-18T14:10:35;36.03;;;12.48;;
70560;SDS011;58109;53.570;10.084;2022-12-18T14:13:06;28.85;;;13.20;;
70560;SDS011;58109;53.570;10.084;2022-12-18T14:15:35;37.28;;;12.80;;
70560;SDS011;58109;53.570;10.084;2022-12-18T14:20:53;33.10;;;13.50;;
70560;SDS011;58109;53.570;10.084;2022-12-18T14:23:27;34.17;;;13.68;;
70560;SDS011;58109;53.570;10.084;2022-12-18T14:26:17;30.55;;;13.18;;
70560;SDS011;58109;53.570;10.084;2022-12-18T14:28:45;35.67;;;14.65;;
70560;SDS011;58109;53.570;10.084;2022-12-18T14:31:20;37.23;;;14.83;;
70560;SDS011;58109;53.570;10.084;2022-12-18T14:33:52;34.28;;;13.63;;
70560;SDS011;58109;53.570;10.084;2022-12-18T14:36:19;34.95;;;14.20;;
70560;SDS011;58109;53.570;10.084;2022-12-18T14:38:50;38.25;;;14.55;;
70560;SDS011;58109;53.570;10.084;2022-12-18T14:41:19;39.17;;;15.13;;
70560;SDS011;58109;53.570;10.084;2022-12-18T14:43:54;41.35;;;15.27;;
70560;SDS011;58109;53.570;10.084;2022-12-18T14:49:02;35.83;;;15.13;;
70560;SDS011;58109;53.570;10.084;2022-12-18T14:51:30;34.85;;;15.38;;
70560;SDS011;58109;53.570;10.084;2022-12-18T14:53:58;38.45;;;15.27;;
70560;SDS011;58109;53.570;10.084;2022-12-18T14:56:36;37.00;;;16.33;;
70560;SDS011;58109;53.570;10.084;2022-12-18T14:59:16;37.20;;;15.77;;
70560;SDS011;58109;53.570;10.084;2022-12-18T15:01:46;30.67;;;14.35;;
70560;SDS011;58109;53.570;10.084;2022-12-18T15:04:31;35.08;;;15.13;;
70560;SDS011;58109;53.570;10.084;2022-12-18T15:07:08;42.20;;;15.50;;
70560;SDS011;58109;53.570;10.084;2022-12-18T15:09:42;36.55;;;15.77;;
70560;SDS011;58109;53.570;10.084;2022-12-18T15:15:01;39.75;;;14.63;;
70560;SDS011;58109;53.570;10.084;2022-12-18T15:17:28;35.65;;;14.52;;
70560;SDS011;58109;53.570;10.084;2022-12-18T15:19:58;35.60;;;15.10;;
70560;SDS011;58109;53.570;10.084;2022-12-18T15:22:29;38.13;;;15.18;;
70560;SDS011;58109;53.570;10.084;2022-12-18T15:24:58;45.50;;;16.05;;
70560;SDS011;58109;53.570;10.084;2022-12-18T15:32:46;37.88;;;16.25;;
70560;SDS011;58109;53.570;10.084;2022-12-18T15:35:30;37.38;;;15.10;;
70560;SDS011;58109;53.570;10.084;2022-12-18T15:38:24;40.88;;;15.75;;
70560;SDS011;58109;53.570;10.084;2022-12-18T15:40:50;40.13;;;15.80;;
70560;SDS011;58109;53.570;10.084;2022-12-18T15:43:18;33.40;;;15.07;;
70560;SDS011;58109;53.570;10.084;2022-12-18T15:46:08;40.42;;;16.27;;
70560;SDS011;58109;53.570;10.084;2022-12-18T15:48:40;35.28;;;14.63;;
70560;SDS011;58109;53.570;10.084;2022-12-18T15:51:13;45.58;;;16.15;;
70560;SDS011;58109;53.570;10.084;2022-12-18T15:53:48;38.03;;;15.13;;
70560;SDS011;58109;53.570;10.084;2022-12-18T15:56:24;40.78;;;16.52;;
70560;SDS011;58109;53.570;10.084;2022-12-18T15:59:11;36.97;;;14.18;;
70560;SDS011;58109;53.570;10.084;2022-12-18T16:01:46;39.00;;;13.50;;
70560;SDS011;58109;53.570;10.084;2022-12-18T16:04:17;42.05;;;14.30;;
70560;SDS011;58109;53.570;10.084;2022-12-18T16:07:00;44.25;;;16.55;;
70560;SDS011;58109;53.570;10.084;2022-12-18T16:09:26;38.05;;;14.27;;
70560;SDS011;58109;53.570;10.084;2022-12-18T16:11:51;33.70;;;14.53;;
70560;SDS011;58109;53.570;10.084;2022-12-18T16:14:23;34.47;;;15.60;;
70560;SDS011;58109;53.570;10.084;2022-12-18T16:16:49;39.80;;;15.13;;
70560;SDS011;58109;53.570;10.084;2022-12-18T16:19:48;36.88;;;15.48;;
70560;SDS011;58109;53.570;10.084;2022-12-18T16:24:50;36.85;;;15.18;;
70560;SDS011;58109;53.570;10.084;2022-12-18T16:27:16;39.83;;;15.68;;
70560;SDS011;58109;53.570;10.084;2022-12-18T16:29:42;40.17;;;16.47;;
70560;SDS011;58109;53.570;10.084;2022-12-18T16:32:08;39.93;;;16.07;;
70560;SDS011;58109;53.570;10.084;2022-12-18T16:34:37;36.33;;;14.90;;
70560;SDS011;58109;53.570;10.084;2022-12-18T16:37:06;44.35;;;16.00;;
70560;SDS011;58109;53.570;10.084;2022-12-18T16:39:32;36.08;;;14.90;;
70560;SDS011;58109;53.570;10.084;2022-12-18T16:42:04;35.67;;;14.18;;
70560;SDS011;58109;53.570;10.084;2022-12-18T16:44:32;34.20;;;13.98;;
70560;SDS011;58109;53.570;10.084;2022-12-18T16:46:58;40.63;;;15.65;;
70560;SDS011;58109;53.570;10.084;2022-12-18T16:49:26;37.70;;;15.30;;
70560;SDS011;58109;53.570;10.084;2022-12-18T16:51:52;37.83;;;14.13;;
70560;SDS011;58109;53.570;10.084;2022-12-18T16:54:18;36.97;;;15.10;;
70560;SDS011;58109;53.570;10.084;2022-12-18T16:56:44;34.50;;;14.53;;